Time;durP1;ratioP1;P1;durP2;ratioP2;P2;SDS_P1;SDS_P2;PMS_P1;PMS_P2;Temp;Humidity;BMP_temperature;BMP_pressure;BME280_temperature;BME280_humidity;BME280_pressure;Samples;Min_cycle;Max_cycle;Signal;HPM_P1;HPM_P2
2022/04/25 00:01:37;;;;;;;21.30;13.98;;;;;;;8.67;90.71;67736.84;5023366;28;20053;-78
2022/04/25 00:04:03;;;;;;;21.10;14.80;;;;;;;8.61;91.45;67733.25;5023315;28;20152;-79
2022/04/25 00:06:29;;;;;;;19.77;13.70;;;;;;;8.62;91.32;67731.72;5023095;28;20030;-78
2022/04/25 00:08:54;;;;;;;20.88;15.30;;;;;;;8.57;92.18;67726.06;5027269;28;20049;-78
2022/04/25 00:11:19;;;;;;;20.85;15.50;;;;;;;;;;5031227;28;20041;-78
2022/04/25 00:13:45;;;;;;;20.87;14.93;;;;;;;8.51;92.91;67719.25;5026620;28;20112;-79
2022/04/25 00:16:10;;;;;;;22.60;16.92;;;;;;;8.48;93.08;67719.09;5027287;28;20292;-78
2022/04/25 00:18:36;;;;;;;19.75;15.43;;;;;;;8.50;93.04;67718.72;5025057;28;20061;-79
2022/04/25 00:21:02;;;;;;;23.63;16.48;;;;;;;8.52;92.89;67720.41;5024663;28;20052;-78
2022/04/25 00:23:27;;;;;;;22.27;15.73;;;;;;;8.43;93.52;67713.44;5026749;28;20049;-78
2022/04/25 00:25:53;;;;;;;22.10;16.08;;;;;;;8.55;93.25;67729.69;5026087;28;20053;-78
2022/04/25 00:28:19;;;;;;;21.25;15.80;;;;;;;8.50;93.28;67718.72;5028403;28;20037;-77
2022/04/25 00:30:47;;;;;;;20.92;15.13;;;;;;;8.45;93.76;67712.47;5032838;28;20045;-78
2022/04/25 00:33:13;;;;;;;23.63;17.02;;;;;;;8.47;93.33;67714.75;5018941;23;20046;-88
2022/04/25 00:35:38;;;;;;;22.65;16.55;;;;;;;8.42;94.20;67714.94;4892173;28;20044;-89
2022/04/25 00:38:04;;;;;;;23.13;16.98;;;;;;;8.40;94.31;67709.47;4859776;29;20067;-88
2022/04/25 00:40:29;;;;;;;20.45;15.05;;;;;;;;;;4864194;29;20041;-88
2022/04/25 00:42:54;;;;;;;18.95;14.65;;;;;;;8.41;94.15;67713.25;4878495;29;20055;-88
2022/04/25 00:45:20;;;;;;;21.23;16.13;;;;;;;8.35;94.78;67702.25;4873304;29;20500;-89
2022/04/25 00:47:46;;;;;;;19.45;15.55;;;;;;;8.46;94.00;67716.25;4873586;29;20056;-88
2022/04/25 00:50:13;;;;;;;23.73;15.70;;;;;;;8.39;93.73;67710.97;4832981;29;20094;-89
2022/04/25 00:52:39;;;;;;;23.10;17.00;;;;;;;8.26;95.13;67696.81;4824226;29;20745;-87
2022/04/25 00:55:08;;;;;;;21.80;16.58;;;;;;;8.19;95.67;67683.56;4810917;29;20038;-88
2022/04/25 00:57:35;;;;;;;20.23;16.25;;;;;;;8.13;96.09;67677.34;4804001;29;20124;-89
2022/04/25 01:00:01;;;;;;;23.40;17.55;;;;;;;8.10;96.93;67673.94;4768923;29;20265;-88
2022/04/25 01:02:27;;;;;;;22.92;18.45;;;;;;;7.95;97.38;67662.25;4731413;29;29436;-88
2022/04/25 01:05:35;;;;;;;20.58;16.27;;;;;;;8.15;96.39;67682.25;4603242;30;4015812;-88
2022/04/25 01:18:21;;;;;;;24.65;17.70;;;;;;;7.96;98.86;67660.75;4587699;30;4002336;-86
2022/04/25 01:20:48;;;;;;;22.40;17.45;;;;;;;7.94;98.89;67655.81;4729544;30;20084;-87
2022/04/25 01:28:53;;;;;;;20.50;15.48;;;;;;;8.08;97.58;67672.22;4793394;29;20159;-87
2022/04/25 01:31:18;;;;;;;21.20;15.77;;;;;;;8.09;97.32;67680.78;4879129;29;20523;-87
2022/04/25 01:33:44;;;;;;;19.98;15.43;;;;;;;8.18;97.85;67688.31;4901819;29;20047;-88
2022/04/25 01:36:10;;;;;;;19.98;15.32;;;;;;;8.28;96.35;67699.06;4935062;29;20122;-88
2022/04/25 01:38:35;;;;;;;19.85;14.80;;;;;;;8.34;96.16;67700.56;4945856;29;20130;-87
2022/04/25 01:41:01;;;;;;;22.35;15.18;;;;;;;8.19;96.21;67684.13;4941385;29;20074;-87
2022/04/25 01:43:27;;;;;;;18.48;14.77;;;;;;;8.25;96.74;67693.56;4943762;28;20460;-88
2022/04/25 01:45:53;;;;;;;18.40;14.95;;;;;;;8.30;96.33;67701.91;4939616;29;20043;-87
2022/04/25 01:48:18;;;;;;;18.85;15.85;;;;;;;8.28;96.72;67694.31;4976079;28;20045;-87
2022/04/25 01:50:43;;;;;;;27.27;16.90;;;;;;;8.08;97.88;67674.88;4987368;28;20061;-87
2022/04/25 01:53:09;;;;;;;21.38;17.13;;;;;;;7.94;98.90;67661.13;4987741;28;20874;-87
2022/04/25 01:55:34;;;;;;;23.45;18.90;;;;;;;7.87;100.00;67649.03;4977804;28;20752;-87
2022/04/25 01:58:00;;;;;;;21.73;18.00;;;;;;;7.90;99.67;67652.41;4960678;28;20288;-87
2022/04/25 02:00:26;;;;;;;21.98;16.73;;;;;;;;;;4987485;28;20107;-87
2022/04/25 02:02:51;;;;;;;23.63;18.50;;;;;;;8.00;99.93;67662.59;4965274;28;20138;-88
2022/04/25 02:05:16;;;;;;;19.98;16.90;;;;;;;8.14;99.16;67678.47;4907123;29;20067;-87
2022/04/25 02:07:42;;;;;;;24.23;17.05;;;;;;;8.21;98.20;67688.50;4856879;29;20086;-87
2022/04/25 02:10:07;;;;;;;20.75;16.95;;;;;;;8.24;98.23;67689.25;4863500;29;20138;-88
2022/04/25 02:12:34;;;;;;;24.30;18.92;;;;;;;8.21;98.55;67685.84;4854250;29;20053;-86
2022/04/25 02:15:01;;;;;;;21.75;18.00;;;;;;;8.25;98.54;67695.66;4869364;29;20146;-87
2022/04/25 02:17:26;;;;;;;21.05;18.40;;;;;;;8.18;99.32;67683.00;4847366;29;20083;-87
2022/04/25 02:19:52;;;;;;;21.48;18.90;;;;;;;8.18;99.28;67683.00;4845140;29;20049;-87
2022/04/25 02:22:17;;;;;;;24.48;19.55;;;;;;;8.13;99.46;67677.91;4835789;29;20046;-87
2022/04/25 02:24:43;;;;;;;24.90;18.58;;;;;;;8.17;98.92;67686.59;4787807;29;20062;-88
2022/04/25 02:27:08;;;;;;;22.85;18.52;;;;;;;8.28;98.63;67699.06;4801774;29;20051;-88
2022/04/25 02:29:35;;;;;;;24.40;19.63;;;;;;;;;;4800546;29;20050;-87
2022/04/25 02:32:01;;;;;;;24.00;19.58;;;;;;;8.20;98.80;67690.59;4787475;29;20138;-88
2022/04/25 02:34:28;;;;;;;23.90;20.40;;;;;;;8.06;100.00;67672.63;4796927;29;20046;-88
2022/04/25 02:36:55;;;;;;;26.17;20.15;;;;;;;8.20;99.55;67687.34;4791780;29;20050;-88
2022/04/25 02:39:21;;;;;;;25.13;18.83;;;;;;;8.26;98.04;67692.06;4803630;29;20046;-88
2022/04/25 02:41:47;;;;;;;27.05;20.30;;;;;;;8.22;98.71;67687.53;4783456;29;20054;-89
2022/04/25 02:44:12;;;;;;;27.45;20.77;;;;;;;8.26;97.71;67691.50;4788916;29;433959;-89
2022/04/25 02:46:37;;;;;;;28.38;22.90;;;;;;;8.14;98.70;67684.34;4762596;29;388910;-89
2022/04/25 02:49:03;;;;;;;27.38;20.88;;;;;;;8.13;99.72;67682.63;4722403;30;666658;-87
2022/04/25 02:51:28;;;;;;;31.33;25.33;;;;;;;;;;4723198;29;446221;-88
2022/04/25 02:53:54;;;;;;;32.33;25.92;;;;;;;7.93;100.00;67660.00;4763469;29;20461;-88
2022/04/25 02:56:19;;;;;;;34.38;25.05;;;;;;;7.99;100.00;67661.47;4747040;29;20047;-88
2022/04/25 02:58:44;;;;;;;32.03;26.45;;;;;;;7.94;100.00;67659.06;4746639;29;20070;-88
2022/04/25 03:01:10;;;;;;;33.92;27.02;;;;;;;7.95;100.00;67662.25;4772379;29;20702;-88
2022/04/25 03:03:37;;;;;;;33.15;25.85;;;;;;;7.99;100.00;67664.69;4787911;29;20046;-88
2022/04/25 03:06:05;;;;;;;35.85;24.60;;;;;;;8.03;100.00;67666.59;4834594;29;595356;-88
2022/04/25 03:08:31;;;;;;;31.17;24.43;;;;;;;8.25;99.37;67690.38;4809673;29;428806;-88
2022/04/25 03:10:57;;;;;;;33.25;27.17;;;;;;;8.06;100.00;67669.41;4827917;29;410976;-87
2022/04/25 03:13:25;;;;;;;36.53;27.10;;;;;;;8.03;100.00;67666.59;4854721;29;20045;-88
2022/04/25 03:15:52;;;;;;;35.03;27.20;;;;;;;8.00;100.00;67667.91;4852540;29;20109;-88
2022/04/25 03:18:19;;;;;;;34.28;27.88;;;;;;;7.95;100.00;67662.25;4856558;29;20040;-89
2022/04/25 03:20:48;;;;;;;35.08;29.27;;;;;;;7.94;100.00;67661.13;4827719;29;20061;-88
2022/04/25 03:23:18;;;;;;;35.55;29.60;;;;;;;7.93;100.00;67654.69;4812353;29;21157;-87
2022/04/25 03:25:45;;;;;;;35.17;28.77;;;;;;;7.94;100.00;67658.47;4771321;29;20523;-88
2022/04/25 03:28:11;;;;;;;55.13;35.13;;;;;;;7.98;100.00;67660.34;4812388;29;20136;-88
2022/04/25 03:30:37;;;;;;;72.80;39.15;;;;;;;7.92;100.00;67659.44;4827951;29;20152;-89
2022/04/25 03:33:03;;;;;;;55.28;33.60;;;;;;;8.04;100.00;67669.81;4854429;29;20146;-88
2022/04/25 03:35:30;;;;;;;37.92;29.98;;;;;;;8.01;100.00;67666.41;4838524;29;20041;-87
2022/04/25 03:37:57;;;;;;;37.20;27.38;;;;;;;8.07;100.00;67671.09;4844695;29;510313;-87
2022/04/25 03:40:24;;;;;;;35.25;27.85;;;;;;;7.98;100.00;67660.91;4806012;29;546664;-88
2022/04/25 03:42:49;;;;;;;34.33;28.38;;;;;;;7.95;100.00;67657.53;4808673;29;494629;-88
2022/04/25 03:45:16;;;;;;;36.53;28.17;;;;;;;7.95;100.00;67656.97;4766347;29;20063;-90
2022/04/25 03:47:42;;;;;;;34.90;29.55;;;;;;;;;;4808887;29;20054;-87
2022/04/25 03:50:08;;;;;;;34.92;29.15;;;;;;;7.90;100.00;67651.84;4803937;29;20426;-88
2022/04/25 03:52:34;;;;;;;36.63;28.20;;;;;;;7.89;100.00;67656.59;4818524;29;20042;-87
2022/04/25 03:57:47;;;;;;;37.05;25.48;;;;;;;8.06;100.00;67672.06;4862615;29;20702;-87
2022/04/25 04:00:12;;;;;;;33.38;27.58;;;;;;;8.00;100.00;67665.84;4854226;29;20058;-86
2022/04/25 04:02:38;;;;;;;35.83;27.83;;;;;;;7.98;100.00;67660.91;4893097;29;20044;-87
2022/04/25 04:05:05;;;;;;;31.98;27.80;;;;;;;7.98;100.00;67660.91;4946191;28;20125;-87
2022/04/25 04:07:30;;;;;;;34.88;25.92;;;;;;;;;;4978857;28;20038;-87
2022/04/25 04:09:56;;;;;;;32.50;25.95;;;;;;;8.00;100.00;67665.25;4962884;28;20069;-87
2022/04/25 04:12:24;;;;;;;33.65;25.15;;;;;;;8.04;100.00;67667.72;4986826;28;20490;-84
2022/04/25 04:14:49;;;;;;;30.80;22.17;;;;;;;8.05;100.00;67671.50;4993184;28;20519;-83
2022/04/25 04:17:17;;;;;;;32.85;25.50;;;;;;;7.99;100.00;67664.13;4993710;28;20034;-85
2022/04/25 04:19:43;;;;;;;32.97;24.38;;;;;;;;;;4991497;28;20046;-85
2022/04/25 04:22:08;;;;;;;31.08;24.95;;;;;;;7.88;100.00;67655.47;4974806;28;20042;-87
2022/04/25 04:24:34;;;;;;;33.85;25.35;;;;;;;7.94;100.00;67661.69;4991102;28;20046;-88
2022/04/25 04:27:06;;;;;;;34.22;24.75;;;;;;;7.91;100.00;67655.63;4990773;28;20465;-87
2022/04/25 04:29:33;;;;;;;31.75;24.08;;;;;;;7.88;100.00;67652.81;4989337;28;20042;-87
2022/04/25 04:32:01;;;;;;;31.77;23.88;;;;;;;7.97;100.00;67661.88;4992778;28;20043;-87
2022/04/25 04:34:28;;;;;;;32.60;23.65;;;;;;;8.02;100.00;67665.44;5001392;28;20113;-87
2022/04/25 04:36:53;;;;;;;31.63;23.30;;;;;;;8.08;100.00;67672.22;5008775;28;20038;-87
2022/04/25 04:39:20;;;;;;;30.90;24.38;;;;;;;7.99;100.00;67667.34;5006712;28;20530;-87
2022/04/25 04:41:45;;;;;;;29.70;23.50;;;;;;;7.90;100.00;67647.13;4996797;28;20034;-88
2022/04/25 04:44:11;;;;;;;31.13;25.00;;;;;;;7.87;100.00;67648.47;4988695;28;20121;-87
2022/04/25 04:46:37;;;;;;;36.55;26.33;;;;;;;7.90;100.00;67655.06;4969705;28;20402;-87
2022/04/25 04:49:03;;;;;;;28.75;23.92;;;;;;;7.99;100.00;67661.47;4986666;28;20486;-88
2022/04/25 04:51:28;;;;;;;36.67;25.55;;;;;;;7.99;100.00;67666.78;4985059;28;20046;-87
2022/04/25 04:53:53;;;;;;;31.65;25.65;;;;;;;7.94;100.00;67655.81;4987246;28;20920;-88
2022/04/25 04:56:19;;;;;;;36.30;25.38;;;;;;;7.92;100.00;67656.78;4986708;28;20105;-88
2022/04/25 04:58:45;;;;;;;40.33;27.63;;;;;;;7.91;100.00;67653.56;4987364;28;20046;-88
2022/04/25 05:01:10;;;;;;;35.53;25.88;;;;;;;;;;4988459;28;20122;-88
2022/04/25 05:03:36;;;;;;;33.53;25.92;;;;;;;7.85;100.00;67651.50;4987378;28;20129;-88
2022/04/25 05:06:02;;;;;;;35.28;25.25;;;;;;;7.86;100.00;67650.00;4987835;28;20579;-87
2022/04/25 05:08:27;;;;;;;33.30;25.10;;;;;;;7.82;100.00;67643.34;4969886;28;20410;-87
2022/04/25 05:10:54;;;;;;;33.03;25.35;;;;;;;7.90;100.00;67654.50;4925616;28;20043;-87
2022/04/25 05:13:20;;;;;;;34.95;26.90;;;;;;;7.85;100.00;67649.44;4917657;29;20052;-88
2022/04/25 05:15:46;;;;;;;37.45;27.75;;;;;;;7.79;100.00;67639.41;4927950;29;20039;-87
2022/04/25 05:18:12;;;;;;;35.92;26.60;;;;;;;7.80;100.00;67641.13;4921693;29;20078;-86
2022/04/25 05:20:38;;;;;;;37.75;27.30;;;;;;;7.72;100.00;67637.34;4909494;29;20084;-85
2022/04/25 05:23:03;;;;;;;38.33;28.40;;;;;;;7.64;100.00;67625.63;4927597;29;20099;-85
2022/04/25 05:25:29;;;;;;;39.72;27.75;;;;;;;7.59;100.00;67617.31;4912081;29;20143;-85
2022/04/25 05:27:56;;;;;;;36.20;28.45;;;;;;;7.56;100.00;67616.59;4910063;29;20048;-85
2022/04/25 05:30:23;;;;;;;37.45;27.40;;;;;;;7.49;100.00;67611.88;4927637;29;20511;-85
2022/04/25 05:32:51;;;;;;;40.28;25.92;;;;;;;7.55;100.00;67613.38;4910081;29;20051;-85
2022/04/25 05:35:25;;;;;;;39.55;27.10;;;;;;;7.64;100.00;67623.00;4943056;29;20035;-85
2022/04/25 05:37:51;;;;;;;37.40;27.75;;;;;;;7.54;100.00;67614.31;4929529;29;20047;-84
2022/04/25 05:40:17;;;;;;;35.85;28.55;;;;;;;;;;4929797;29;20147;-85
2022/04/25 05:42:44;;;;;;;40.95;28.65;;;;;;;7.47;100.00;67604.31;4942374;28;20478;-84
2022/04/25 05:45:10;;;;;;;38.28;28.08;;;;;;;7.46;100.00;67603.19;4986561;28;20505;-85
2022/04/25 05:47:37;;;;;;;38.13;29.90;;;;;;;7.46;100.00;67605.84;4986183;28;20494;-85
2022/04/25 05:52:48;;;;;;;39.80;27.88;;;;;;;7.44;100.00;67604.13;4985610;28;20134;-85
2022/04/25 05:55:13;;;;;;;35.45;26.50;;;;;;;7.50;100.00;67615.09;4991916;28;20062;-86
2022/04/25 05:57:40;;;;;;;36.67;25.25;;;;;;;7.53;100.00;67613.19;4982601;28;20058;-86
2022/04/25 06:00:07;;;;;;;36.55;24.83;;;;;;;7.54;100.00;67614.31;4989199;28;20046;-85
2022/04/25 06:02:36;;;;;;;32.38;25.60;;;;;;;7.53;100.00;67615.84;4988352;28;20053;-85
2022/04/25 06:05:01;;;;;;;32.55;26.33;;;;;;;7.51;100.00;67613.56;4986348;28;20383;-85
2022/04/25 06:07:26;;;;;;;34.63;25.38;;;;;;;7.52;100.00;67609.97;4985884;28;20054;-86
2022/04/25 06:09:52;;;;;;;30.75;24.33;;;;;;;7.50;100.00;67609.78;4987776;28;20489;-85
2022/04/25 06:12:17;;;;;;;26.77;22.15;;;;;;;7.50;100.00;67609.78;4968373;28;20049;-86
2022/04/25 06:14:44;;;;;;;28.23;22.48;;;;;;;7.49;100.00;67611.31;4983215;28;20409;-86
2022/04/25 06:17:13;;;;;;;31.38;23.67;;;;;;;7.57;100.00;67617.72;4987123;28;20053;-86
2022/04/25 06:19:38;;;;;;;31.40;24.27;;;;;;;7.52;100.00;67612.06;4983631;28;20889;-86
2022/04/25 06:22:04;;;;;;;32.03;23.88;;;;;;;7.51;100.00;67613.56;4981951;28;20046;-86
2022/04/25 06:24:29;;;;;;;28.90;21.63;;;;;;;7.57;100.00;67620.38;4981427;28;20039;-86
2022/04/25 06:26:55;;;;;;;30.65;22.10;;;;;;;7.60;100.00;67619.03;4985928;28;20042;-86
2022/04/25 06:29:21;;;;;;;28.30;22.30;;;;;;;7.59;100.00;67619.97;4987386;28;20045;-86
2022/04/25 06:31:46;;;;;;;31.20;22.75;;;;;;;7.58;100.00;67618.84;4983644;28;20076;-86
2022/04/25 06:34:12;;;;;;;28.67;21.80;;;;;;;7.59;100.00;67619.97;4984598;28;20095;-87
2022/04/25 06:36:37;;;;;;;30.02;23.02;;;;;;;7.63;100.00;67627.72;4972124;28;20078;-87
2022/04/25 06:39:03;;;;;;;29.15;21.88;;;;;;;;;;4978093;28;20074;-88
2022/04/25 06:41:30;;;;;;;27.77;21.80;;;;;;;7.65;100.00;67632.06;4985577;28;20104;-87
2022/04/25 06:43:55;;;;;;;29.33;24.33;;;;;;;7.63;100.00;67627.16;4973988;28;20057;-88
2022/04/25 06:46:20;;;;;;;31.65;21.98;;;;;;;7.70;100.00;67635.09;4986750;28;20042;-87
2022/04/25 06:49:19;;;;;;;31.27;22.88;;;;;;;7.72;100.00;67634.13;4974824;28;20042;-87
2022/04/25 06:51:31;;;;;;;28.90;22.17;;;;;;;7.66;100.00;67631.13;4995082;28;20055;-87
2022/04/25 06:53:58;;;;;;;32.05;24.10;;;;;;;7.67;100.00;67629.59;4995347;28;20126;-87
2022/04/25 06:56:24;;;;;;;29.80;23.48;;;;;;;7.65;100.00;67624.13;4983851;28;20042;-87
2022/04/25 06:58:49;;;;;;;31.67;24.23;;;;;;;7.73;100.00;67638.47;4990716;28;20099;-87
2022/04/25 07:01:15;;;;;;;30.02;24.90;;;;;;;7.69;100.00;67634.50;4986347;28;20132;-87
2022/04/25 07:03:40;;;;;;;31.42;23.83;;;;;;;7.84;100.00;67647.72;4993876;28;20105;-88
2022/04/25 07:06:05;;;;;;;31.38;24.50;;;;;;;7.87;100.00;67651.13;4998048;28;20124;-88
2022/04/25 07:08:33;;;;;;;33.25;24.38;;;;;;;7.82;100.00;67643.34;4995020;28;20053;-88
2022/04/25 07:10:59;;;;;;;32.75;23.65;;;;;;;7.79;100.00;67642.06;4995291;28;20038;-88
2022/04/25 07:13:24;;;;;;;34.20;22.50;;;;;;;7.84;100.00;67650.94;4992962;28;20090;-87
2022/04/25 07:15:50;;;;;;;32.30;24.15;;;;;;;7.93;100.00;67657.34;4984528;28;20042;-88
2022/04/25 07:18:16;;;;;;;30.15;23.02;;;;;;;7.99;100.00;67666.78;4986060;28;20042;-87
2022/04/25 07:20:41;;;;;;;32.53;22.17;;;;;;;8.08;100.00;67671.66;4983591;28;20049;-88
2022/04/25 07:28:49;;;;;;;28.08;21.23;;;;;;;8.00;100.00;67665.84;4983671;28;20096;-87
2022/04/25 07:31:15;;;;;;;28.00;20.98;;;;;;;8.14;100.00;67681.69;4984974;28;20051;-87
2022/04/25 07:33:43;;;;;;;28.25;20.85;;;;;;;8.15;100.00;67684.91;4981258;28;20598;-88
2022/04/25 07:36:09;;;;;;;25.85;21.33;;;;;;;8.15;100.00;67682.25;4979615;28;20494;-87
2022/04/25 07:38:35;;;;;;;29.58;21.17;;;;;;;8.21;100.00;67685.84;4968078;28;20049;-88
2022/04/25 07:41:02;;;;;;;28.75;20.92;;;;;;;8.17;100.00;67684.53;4968407;28;20049;-88
2022/04/25 07:43:29;;;;;;;25.90;19.50;;;;;;;8.27;100.00;67692.63;4981383;28;20049;-88
2022/04/25 07:45:55;;;;;;;22.42;18.17;;;;;;;8.33;100.00;67699.44;4984289;28;20050;-87
2022/04/25 07:48:20;;;;;;;26.25;17.98;;;;;;;8.39;100.00;67708.91;4985169;28;20075;-88
2022/04/25 07:50:46;;;;;;;22.70;18.05;;;;;;;8.34;100.00;67706.44;4981813;28;20133;-87
2022/04/25 07:53:12;;;;;;;22.95;18.63;;;;;;;8.42;100.00;67709.06;4969627;28;20043;-88
2022/04/25 07:55:38;;;;;;;23.77;19.15;;;;;;;8.38;100.00;67705.09;4982768;28;20053;-88
2022/04/25 07:58:03;;;;;;;23.23;18.92;;;;;;;8.35;100.00;67704.91;4961149;28;20065;-88
2022/04/25 08:00:29;;;;;;;23.90;18.40;;;;;;;8.40;100.00;67707.38;4968002;28;20046;-88
2022/04/25 08:02:55;;;;;;;23.55;18.00;;;;;;;8.41;100.00;67708.50;4977027;28;20046;-88
2022/04/25 08:05:20;;;;;;;24.25;18.02;;;;;;;8.40;99.90;67706.81;5003070;22;20089;-80
2022/04/25 08:07:46;;;;;;;25.35;18.98;;;;;;;8.50;100.00;67724.00;4988458;28;20058;-79
2022/04/25 08:10:11;;;;;;;25.02;18.92;;;;;;;8.51;99.52;67722.47;5003003;28;20049;-77
2022/04/25 08:18:06;;;;;;;24.33;16.85;;;;;;;8.45;98.98;67715.69;5023925;28;20100;-80
2022/04/25 08:20:37;;;;;;;23.45;17.17;;;;;;;8.46;99.16;67718.91;5007990;28;20152;-76
2022/04/25 08:23:05;;;;;;;22.70;16.92;;;;;;;8.42;98.32;67709.63;5008773;28;20556;-80
2022/04/25 08:25:30;;;;;;;25.63;18.27;;;;;;;8.33;98.72;67700.00;5008032;28;20042;-79
2022/04/25 08:28:00;;;;;;;21.90;17.77;;;;;;;8.43;99.52;67716.09;5007297;28;20111;-77
2022/04/25 08:30:26;;;;;;;22.55;17.15;;;;;;;8.42;98.99;67709.06;5006391;28;20049;-79
2022/04/25 08:32:52;;;;;;;23.25;16.20;;;;;;;8.51;98.59;67721.91;5007916;28;20401;-80
2022/04/25 08:35:18;;;;;;;21.75;16.90;;;;;;;8.51;97.93;67719.25;5003346;28;20046;-78
2022/04/25 08:37:43;;;;;;;22.40;16.48;;;;;;;8.57;98.06;67731.38;5022464;28;20720;-79
2022/04/25 08:40:10;;;;;;;21.70;17.40;;;;;;;8.46;98.11;67716.25;5006129;28;20057;-77
2022/04/25 08:42:35;;;;;;;22.83;16.48;;;;;;;8.50;97.32;67718.13;5003356;28;20034;-80
2022/04/25 08:45:05;;;;;;;25.25;15.68;;;;;;;8.55;97.15;67723.81;5006962;28;20045;-76
2022/04/25 08:47:33;;;;;;;22.50;16.83;;;;;;;;;;5008807;28;20034;-79
2022/04/25 08:49:59;;;;;;;22.52;17.63;;;;;;;8.64;96.68;67734.00;5007345;28;20100;-78
2022/04/25 08:52:28;;;;;;;20.65;16.63;;;;;;;8.67;97.39;67737.41;5007785;28;20104;-79
2022/04/25 08:54:57;;;;;;;21.70;16.75;;;;;;;8.64;96.89;67736.66;5008138;28;20073;-79
2022/04/25 08:57:25;;;;;;;23.55;16.20;;;;;;;8.75;96.52;67748.56;5011276;28;20058;-78
2022/04/25 08:59:54;;;;;;;23.10;17.33;;;;;;;8.68;96.00;67737.97;5014002;28;20046;-78
2022/04/25 09:02:20;;;;;;;23.90;16.90;;;;;;;;;;5016079;28;20308;-78
2022/04/25 09:04:46;;;;;;;22.20;16.02;;;;;;;8.83;95.39;67757.59;5008450;28;20046;-79
2022/04/25 09:07:12;;;;;;;21.23;16.15;;;;;;;8.87;95.54;67764.81;4994367;28;20049;-80
2022/04/25 09:09:37;;;;;;;23.30;16.75;;;;;;;8.90;96.19;67765.56;4994310;28;20054;-79
2022/04/25 09:12:12;;;;;;;21.80;15.70;;;;;;;;;;4992958;28;20043;-81
2022/04/25 09:14:40;;;;;;;25.00;15.63;;;;;;;8.99;95.64;67772.53;4992293;28;20050;-78
2022/04/25 09:17:06;;;;;;;22.05;16.65;;;;;;;9.10;95.32;67785.00;4993228;28;20121;-78
2022/04/25 09:19:33;;;;;;;24.50;18.23;;;;;;;9.06;95.27;67780.44;4991223;28;20050;-76
2022/04/25 09:21:59;;;;;;;23.17;17.45;;;;;;;8.99;94.86;67775.19;4992213;28;20046;-79
2022/04/25 09:24:32;;;;;;;23.02;16.83;;;;;;;9.04;95.17;67781.41;4988558;28;20042;-78
2022/04/25 09:27:07;;;;;;;23.95;18.13;;;;;;;8.96;95.18;67775.00;4989248;28;20113;-77
2022/04/25 09:29:34;;;;;;;22.60;17.30;;;;;;;8.95;94.99;67768.56;4988476;28;20053;-78
2022/04/25 09:31:59;;;;;;;24.17;18.13;;;;;;;;;;4984734;28;20042;-77
2022/04/25 09:37:09;;;;;;;31.23;20.02;;;;;;;9.02;95.01;67778.59;4997326;28;20113;-79
2022/04/25 09:39:36;;;;;;;23.92;18.13;;;;;;;9.09;95.07;67783.88;4986639;28;20034;-77
2022/04/25 09:42:01;;;;;;;25.58;17.33;;;;;;;9.01;95.01;67775.38;4989220;28;20070;-77
2022/04/25 09:44:30;;;;;;;25.98;18.98;;;;;;;9.10;94.36;67787.66;4987374;28;20461;-77
2022/04/25 09:46:56;;;;;;;25.30;17.77;;;;;;;9.07;94.75;67781.59;4987756;28;20034;-77
2022/04/25 09:49:21;;;;;;;25.45;17.98;;;;;;;9.13;95.21;67791.06;4988040;28;20490;-78
2022/04/25 09:52:03;;;;;;;29.50;17.27;;;;;;;9.19;94.52;67797.84;4986774;28;20077;-77
2022/04/25 09:54:29;;;;;;;23.30;16.55;;;;;;;;;;4985524;28;20069;-77
2022/04/25 09:56:55;;;;;;;23.65;17.33;;;;;;;9.09;93.91;67783.28;4988824;28;20428;-78
2022/04/25 09:59:23;;;;;;;28.77;18.25;;;;;;;9.01;94.65;67775.38;4987266;28;20054;-78
2022/04/25 10:02:04;;;;;;;24.38;18.33;;;;;;;9.01;94.37;67775.38;4988042;28;20054;-77
2022/04/25 10:04:36;;;;;;;26.38;18.17;;;;;;;9.01;95.27;67774.81;4985346;28;20121;-77
2022/04/25 10:07:02;;;;;;;26.13;18.52;;;;;;;;;;4987578;28;20042;-76
2022/04/25 10:09:33;;;;;;;22.58;17.65;;;;;;;9.03;94.77;67772.31;4987993;28;20046;-76
2022/04/25 10:12:00;;;;;;;25.73;16.90;;;;;;;9.08;95.31;67782.72;4992969;28;20034;-78
2022/04/25 10:14:26;;;;;;;21.92;16.90;;;;;;;;;;5007916;28;20041;-77
2022/04/25 10:16:57;;;;;;;22.40;16.90;;;;;;;9.08;94.79;67788.03;5005730;28;20140;-78
2022/04/25 10:19:26;;;;;;;21.08;16.58;;;;;;;9.14;94.92;67789.53;5007008;28;20038;-79
2022/04/25 10:21:52;;;;;;;;;;;;;;;9.18;94.36;67788.19;5003583;28;20077;-77
2022/04/25 10:24:19;;;;;;;25.35;17.42;;;;;;;9.15;94.23;67790.09;5021124;28;19976;-79
2022/04/25 10:26:46;;;;;;;23.38;17.55;;;;;;;9.29;94.59;67808.03;5004380;28;20070;-79
2022/04/25 10:29:18;;;;;;;22.90;17.58;;;;;;;9.19;93.21;67795.19;5007276;28;20046;-75
2022/04/25 10:31:47;;;;;;;24.85;17.75;;;;;;;9.23;93.84;67805.03;5004002;28;20101;-77
2022/04/25 10:34:16;;;;;;;23.43;17.47;;;;;;;9.33;93.98;67813.16;5000843;28;20026;-79
2022/04/25 10:36:46;;;;;;;26.08;17.95;;;;;;;9.35;93.37;67812.19;5001420;28;20288;-79
2022/04/25 10:39:15;;;;;;;24.63;16.70;;;;;;;9.31;93.64;67807.66;5006932;28;20618;-79
2022/04/25 10:44:36;;;;;;;24.92;18.63;;;;;;;9.22;94.00;67798.03;5003959;28;20056;-77
2022/04/25 10:47:11;;;;;;;26.92;18.65;;;;;;;9.26;94.62;67803.13;5006544;28;20647;-78
2022/04/25 10:49:42;;;;;;;28.23;19.42;;;;;;;;;;4997803;28;20049;-77
2022/04/25 10:52:26;;;;;;;24.83;18.67;;;;;;;;;;5002577;28;20084;-79
2022/04/25 10:55:09;;;;;;;25.88;18.70;;;;;;;9.37;93.47;67809.16;5002157;28;20052;-78
2022/04/25 10:57:35;;;;;;;24.63;19.40;;;;;;;9.38;93.58;67815.59;5004515;28;20038;-77
2022/04/25 11:00:02;;;;;;;26.08;18.83;;;;;;;9.37;94.33;67817.13;5004062;28;20040;-78
2022/04/25 11:02:29;;;;;;;28.70;20.67;;;;;;;9.39;94.21;67819.41;5006402;28;20044;-77
2022/04/25 11:05:10;;;;;;;29.35;19.85;;;;;;;9.45;94.31;67829.41;5004986;28;20042;-78
2022/04/25 11:07:37;;;;;;;27.25;19.35;;;;;;;9.60;93.52;67843.19;5002495;28;20045;-78
2022/04/25 11:10:03;;;;;;;28.20;20.02;;;;;;;9.64;94.36;67850.41;5000748;28;20049;-78
2022/04/25 11:13:00;;;;;;;29.88;19.17;;;;;;;9.63;93.29;67843.94;5004924;28;20201;-77
2022/04/25 11:15:56;;;;;;;27.08;19.52;;;;;;;9.64;93.45;67845.09;5002748;28;20448;-77
2022/04/25 11:18:33;;;;;;;29.63;21.08;;;;;;;9.66;93.48;67850.00;5005905;28;20133;-76
2022/04/25 11:21:07;;;;;;;27.15;20.33;;;;;;;9.64;93.31;67849.84;5005202;28;20136;-78
2022/04/25 11:23:33;;;;;;;27.42;21.52;;;;;;;;;;5002598;28;20038;-77
2022/04/25 11:26:04;;;;;;;26.58;19.48;;;;;;;;;;5006815;28;20406;-78
2022/04/25 11:28:30;;;;;;;26.42;19.25;;;;;;;9.60;92.92;67840.53;5003918;28;20544;-78
2022/04/25 11:31:26;;;;;;;30.70;19.48;;;;;;;9.56;93.95;67835.44;5006006;28;20052;-76
2022/04/25 11:33:54;;;;;;;27.15;19.70;;;;;;;9.48;93.62;67826.94;5000966;28;20053;-78
2022/04/25 11:36:22;;;;;;;30.50;19.05;;;;;;;9.46;93.68;67825.22;5003407;28;20099;-79
2022/04/25 11:41:37;;;;;;;25.98;19.80;;;;;;;9.39;94.13;67816.75;5008947;28;20041;-80
2022/04/25 11:44:04;;;;;;;27.52;20.85;;;;;;;9.39;94.03;67819.41;5005088;28;20046;-76
2022/04/25 11:46:32;;;;;;;28.20;18.83;;;;;;;9.44;93.84;67822.97;5004652;28;20037;-79
2022/04/25 11:48:57;;;;;;;31.42;19.40;;;;;;;9.45;94.05;67826.19;4992876;28;20037;-79
2022/04/25 11:51:26;;;;;;;30.38;18.83;;;;;;;;;;5001819;28;20099;-78
2022/04/25 11:53:54;;;;;;;29.80;22.95;;;;;;;;;;5020289;28;20060;-78
2022/04/25 11:56:21;;;;;;;29.58;22.10;;;;;;;;;;5008530;28;20504;-78
2022/04/25 11:58:48;;;;;;;29.92;21.42;;;;;;;9.48;95.28;67822.19;5007809;28;20092;-79
2022/04/25 12:01:13;;;;;;;30.98;20.55;;;;;;;9.45;94.63;67823.53;5005689;28;20045;-79
2022/04/25 12:03:39;;;;;;;30.20;20.30;;;;;;;9.48;94.25;67827.50;5006519;28;20053;-76
2022/04/25 12:06:12;;;;;;;29.98;20.75;;;;;;;9.56;94.30;67838.66;5005751;28;20065;-79
2022/04/25 12:16:50;;;;;;;33.20;23.08;;;;;;;9.62;94.14;67844.91;4980860;28;20568;-78
2022/04/25 12:19:17;;;;;;;27.10;21.27;;;;;;;9.59;93.24;67844.16;5007734;28;20125;-78
2022/04/25 12:21:48;;;;;;;25.83;19.55;;;;;;;9.63;92.94;67838.06;4999048;28;20026;-78
2022/04/25 12:24:21;;;;;;;29.73;21.10;;;;;;;9.66;93.54;67847.34;5007693;28;20038;-78